Agency, MO (64401)

7:18 AM CDT on May 24, 2017 (GMT -0500)
Owens Estates | | Change Station
Active Advisory: Flood Warning

Elev 1000 ft 39.70 °N, 94.81 °W | Updated 5 seconds ago

Overcast
Overcast
50.5 °F
Feels Like 50.5 °F
N
3.2
Wind Variable Wind from WNW

Today
High -- | Low -- °F
--% Chance of Precip.
Yesterday
High -- | Low -- °F
Precip. -- in
Pressure 29.72 in
Visibility 10.0 miles
Clouds Scattered Clouds 2100 ft
Mostly Cloudy 2800 ft
Overcast 6000 ft
Dew Point 48 °F
Humidity 91%
Rainfall 0.00 in
Snow Depth Not available.
5:57 AM 8:34 PM
Waning Crescent, 3% visible
METAR KSTJ 241153Z 31009KT 10SM SCT021 BKN028 OVC060 11/09 A2972 RMK AO2 SLP063 T01060094 10106 20089 56006
Pressure 29.72 in
Visibility 10.0 miles
Clouds Scattered Clouds 2100 ft
Mostly Cloudy 2800 ft
Overcast 6000 ft
Dew Point 48 °F
Humidity 91%
Rainfall 0.00 in
Snow Depth Not available.
5:57 AM 8:34 PM
Waning Crescent, 3% visible
METAR KSTJ 241153Z 31009KT 10SM SCT021 BKN028 OVC060 11/09 A2972 RMK AO2 SLP063 T01060094 10106 20089 56006

Get Your Daily Forecast Email!

Thanks for signing up!

Be on the lookout for a verification email in your inbox.

You'll start receiving severe weather alerts in your inbox..

×

10-Day Weather Forecast

Almanac

Astronomy

May. 24, 2017 Rise Set
Actual Time
Civil Twilight
Nautical Twilight
Astronomical Twilight
Moon
Length of Visible Light
Length of Day
Tomorrow will be .
, % of the Moon is Illuminated

Today's Extremes

State Highs State Lows

Community

WunderPhotos

Category 6

Welcome to Category 6. This is the collective home for Weather Underground's featured writeups by Dr. Jeff Masters (right), Bob Henson (left), Chris Burt, and other regular contributors.

Nearby

Air Quality

  Air Quality AQ Index Pollutant
Not available.

Snow Depth

Station Depth Elevation

Earthquake Activity

City Distance Mag. Time & Date
Minimum magnitude displayed is 2.5.

Coastal Water Temperatures

Place Temperature

Stations

Nearby Weather Stations

Station Location Temp. Windchill Dew Point Humidity Wind Precip. Elev Updated Type
                   

Watches & Warnings

Flood Warning
Issued: 9:33 PM CDT May. 23, 2017 – National Weather Service

The Flood Warning continues for
the Missouri River at St Joseph.
* Until early Thursday morning.
* At 8:30 PM Tuesday the stage was 18.9 feet.
* Flood stage is 17.0 feet.
* Minor flooding is occurring and minor flooding is forecast.
* Forecast... the river will continue to fall to below flood stage by
early Thursday morning.
* At 17.0 feet... lowland flooding upstream and downstream from St.
Joseph occurs.

                       Latest
location fs stage day/time forecast

Missouri River
St Joseph 17 18.9 Tue 08 PM 18.6 early Wednesday
morning


lat... Lon 3991 9501 3990 9489 3975 9483 3964 9488 3970 9505